createdAt,value
2022-12-12T00:01:55.423Z,14.67
2022-12-12T00:04:23.981Z,14.17
2022-12-12T00:06:54.169Z,15.77
2022-12-12T00:09:22.563Z,16.73
2022-12-12T00:11:51.958Z,16.80
2022-12-12T00:14:20.828Z,17.67
2022-12-12T00:16:49.274Z,17.77
2022-12-12T00:19:18.434Z,18.30
2022-12-12T00:21:46.870Z,16.90
2022-12-12T00:24:17.702Z,17.27
2022-12-12T00:26:46.100Z,18.73
2022-12-12T00:29:15.470Z,17.73
2022-12-12T00:31:44.330Z,18.57
2022-12-12T00:34:13.440Z,19.27
2022-12-12T00:36:42.456Z,20.23
2022-12-12T00:39:16.678Z,20.43
2022-12-12T00:41:48.705Z,19.90
2022-12-12T00:44:17.516Z,18.80
2022-12-12T00:46:46.033Z,20.03
2022-12-12T00:49:14.620Z,19.73
2022-12-12T00:51:45.118Z,19.17
2022-12-12T00:54:13.871Z,18.50
2022-12-12T00:56:42.624Z,19.73
2022-12-12T00:59:12.953Z,18.97
2022-12-12T01:01:41.581Z,19.37
2022-12-12T01:04:10.044Z,19.50
2022-12-12T01:06:39.516Z,18.50
2022-12-12T01:09:08.409Z,18.90
2022-12-12T01:11:36.980Z,19.47
2022-12-12T01:14:06.050Z,20.30
2022-12-12T01:16:36.397Z,19.73
2022-12-12T01:19:04.941Z,18.87
2022-12-12T01:21:33.959Z,18.93
2022-12-12T01:24:02.492Z,17.97
2022-12-12T01:26:31.469Z,18.87
2022-12-12T01:29:00.322Z,18.13
2022-12-12T01:31:29.291Z,18.53
2022-12-12T01:33:59.782Z,18.27
2022-12-12T01:36:28.230Z,18.53
2022-12-12T01:38:57.478Z,18.97
2022-12-12T01:41:26.664Z,18.30
2022-12-12T01:43:55.401Z,18.93
2022-12-12T01:46:35.634Z,18.43
2022-12-12T01:49:14.292Z,19.80
2022-12-12T01:51:44.703Z,19.83
2022-12-12T01:54:18.046Z,18.60
2022-12-12T01:56:49.071Z,18.00
2022-12-12T01:59:20.717Z,17.57
2022-12-12T02:01:50.706Z,19.33
2022-12-12T02:04:22.821Z,17.57
2022-12-12T02:06:53.206Z,18.50
2022-12-12T02:09:25.130Z,17.70
2022-12-12T02:11:56.005Z,17.80
2022-12-12T02:14:28.291Z,17.57
2022-12-12T02:17:13.912Z,16.97
2022-12-12T02:20:27.298Z,16.47
2022-12-12T02:23:39.689Z,16.53
2022-12-12T02:26:26.447Z,15.93
2022-12-12T02:29:20.635Z,14.80
2022-12-12T02:31:56.851Z,14.80
2022-12-12T02:34:34.447Z,14.30
2022-12-12T02:37:09.769Z,14.33
2022-12-12T02:39:48.929Z,15.10
2022-12-12T02:42:27.421Z,15.37
2022-12-12T02:45:01.134Z,15.30
2022-12-12T02:47:33.827Z,15.20
2022-12-12T02:50:06.935Z,15.30
2022-12-12T02:52:35.761Z,15.30
2022-12-12T02:55:04.947Z,15.10
2022-12-12T02:57:33.960Z,15.20
2022-12-12T03:00:06.856Z,15.07
2022-12-12T03:03:17.511Z,16.10
2022-12-12T03:06:17.330Z,14.13
2022-12-12T03:08:59.858Z,14.77
2022-12-12T03:11:39.712Z,15.77
2022-12-12T03:14:14.299Z,16.87
2022-12-12T03:16:49.075Z,18.00
2022-12-12T03:19:26.611Z,16.47
2022-12-12T03:22:01.796Z,17.53
2022-12-12T03:24:37.539Z,16.93
2022-12-12T03:27:11.851Z,16.57
2022-12-12T03:29:45.478Z,15.93
2022-12-12T03:32:18.990Z,15.93
2022-12-12T03:34:57.031Z,15.63
2022-12-12T03:37:29.786Z,15.23
2022-12-12T03:40:03.244Z,15.00
2022-12-12T03:42:38.269Z,14.50
2022-12-12T03:45:12.868Z,13.87
2022-12-12T03:47:48.455Z,13.73
2022-12-12T03:50:22.049Z,14.37
2022-12-12T03:52:56.139Z,14.40
2022-12-12T03:55:28.757Z,14.10
2022-12-12T03:58:01.669Z,14.80
2022-12-12T04:00:37.841Z,13.93
2022-12-12T04:03:12.406Z,13.70
2022-12-12T04:06:02.065Z,13.43
2022-12-12T04:08:31.763Z,13.97
2022-12-12T04:11:24.636Z,14.47
2022-12-12T04:14:04.351Z,14.80
2022-12-12T04:16:37.249Z,13.33
2022-12-12T04:19:13.303Z,13.40
2022-12-12T04:22:06.649Z,13.70
2022-12-12T04:24:44.696Z,13.43
2022-12-12T04:27:22.006Z,14.07
2022-12-12T04:29:59.152Z,14.20
2022-12-12T04:32:34.406Z,13.70
2022-12-12T04:35:08.881Z,14.03
2022-12-12T04:37:44.232Z,14.67
2022-12-12T04:40:15.394Z,15.13
2022-12-12T04:42:47.837Z,14.67
2022-12-12T04:45:20.266Z,15.83
2022-12-12T04:47:53.471Z,14.27
2022-12-12T04:50:24.959Z,15.40
2022-12-12T04:52:57.839Z,15.50
2022-12-12T04:55:31.514Z,14.97
2022-12-12T04:58:00.585Z,15.87
2022-12-12T05:00:35.983Z,15.50
2022-12-12T05:03:11.879Z,15.37
2022-12-12T05:05:44.371Z,16.27
2022-12-12T05:08:20.948Z,16.73
2022-12-12T05:10:53.747Z,16.27
2022-12-12T05:13:25.022Z,16.97
2022-12-12T05:15:57.207Z,15.93
2022-12-12T05:18:25.612Z,15.97
2022-12-12T05:20:55.400Z,18.13
2022-12-12T05:23:27.895Z,18.57
2022-12-12T05:25:59.488Z,19.27
2022-12-12T05:28:28.265Z,16.67
2022-12-12T05:30:56.674Z,17.27
2022-12-12T05:33:25.503Z,16.90
2022-12-12T05:35:53.959Z,17.57
2022-12-12T05:38:22.814Z,17.97
2022-12-12T05:40:53.257Z,18.77
2022-12-12T05:43:22.480Z,19.33
2022-12-12T05:45:51.309Z,19.40
2022-12-12T05:48:24.294Z,19.10
2022-12-12T05:50:53.769Z,19.80
2022-12-12T05:53:22.792Z,18.10
2022-12-12T05:55:53.878Z,18.97
2022-12-12T05:58:22.318Z,18.37
2022-12-12T06:00:51.840Z,19.93
2022-12-12T06:03:20.976Z,19.40
2022-12-12T06:05:49.734Z,17.90
2022-12-12T06:08:22.221Z,21.03
2022-12-12T06:10:55.541Z,19.83
2022-12-12T06:13:24.406Z,18.23
2022-12-12T06:15:53.406Z,20.70
2022-12-12T06:18:21.858Z,20.20
2022-12-12T06:20:50.777Z,21.20
2022-12-12T06:23:20.030Z,22.13
2022-12-12T06:25:51.667Z,20.67
2022-12-12T06:28:21.505Z,19.10
2022-12-12T06:30:50.342Z,18.30
2022-12-12T06:33:18.794Z,20.07
2022-12-12T06:35:47.775Z,19.50
2022-12-12T06:38:16.187Z,20.63
2022-12-12T06:40:45.294Z,20.47
2022-12-12T06:43:14.070Z,22.93
2022-12-12T06:45:43.804Z,23.30
2022-12-12T06:48:12.842Z,19.97
2022-12-12T06:50:41.649Z,20.43
2022-12-12T06:53:11.229Z,19.20
2022-12-12T06:55:42.803Z,18.93
2022-12-12T06:58:12.429Z,18.87
2022-12-12T07:00:41.446Z,19.87
2022-12-12T07:03:13.623Z,20.40
2022-12-12T07:05:42.102Z,19.67
2022-12-12T07:08:11.012Z,18.80
2022-12-12T07:10:39.417Z,20.93
2022-12-12T07:13:08.414Z,21.20
2022-12-12T07:15:43.206Z,21.77
2022-12-12T07:18:13.750Z,20.27
2022-12-12T07:20:42.944Z,18.40
2022-12-12T07:23:11.910Z,18.40
2022-12-12T07:25:41.363Z,17.67
2022-12-12T07:28:11.359Z,19.27
2022-12-12T07:30:41.549Z,18.13
2022-12-12T07:33:10.790Z,19.47
2022-12-12T07:35:42.218Z,19.47
2022-12-12T07:38:12.077Z,17.57
2022-12-12T07:40:41.176Z,19.67
2022-12-12T07:43:09.836Z,18.27
2022-12-12T07:45:38.471Z,20.60
2022-12-12T07:48:07.279Z,20.57
2022-12-12T07:50:36.426Z,21.07
2022-12-12T07:53:06.661Z,20.70
2022-12-12T07:55:36.528Z,20.63
2022-12-12T07:58:05.631Z,19.97
2022-12-12T08:00:34.802Z,19.37
2022-12-12T08:03:04.009Z,19.23
2022-12-12T08:05:32.687Z,19.73
2022-12-12T08:08:01.575Z,19.27
2022-12-12T08:10:31.740Z,19.63
2022-12-12T08:13:00.385Z,19.47
2022-12-12T08:15:29.431Z,19.40
2022-12-12T08:17:58.174Z,20.30
2022-12-12T08:20:26.868Z,19.77
2022-12-12T08:22:55.990Z,20.33
2022-12-12T08:25:24.831Z,25.07
2022-12-12T08:27:55.207Z,23.13
2022-12-12T08:30:23.759Z,24.97
2022-12-12T08:32:52.319Z,22.20
2022-12-12T08:35:20.925Z,20.33
2022-12-12T08:37:49.531Z,21.03
2022-12-12T08:40:18.818Z,21.60
2022-12-12T08:42:47.283Z,21.10
2022-12-12T08:45:17.367Z,19.17
2022-12-12T08:47:45.760Z,20.17
2022-12-12T08:50:14.138Z,20.03
2022-12-12T08:52:42.526Z,21.27
2022-12-12T08:55:11.446Z,21.63
2022-12-12T08:57:40.377Z,21.83
2022-12-12T09:00:10.753Z,19.50
2022-12-12T09:02:40.708Z,21.73
2022-12-12T09:05:09.867Z,20.13
2022-12-12T09:07:38.216Z,19.60
2022-12-12T09:10:07.617Z,20.23
2022-12-12T09:12:41.453Z,20.20
2022-12-12T09:15:11.509Z,20.70
2022-12-12T09:17:41.957Z,21.70
2022-12-12T09:20:11.220Z,20.33
2022-12-12T09:22:39.854Z,19.77
2022-12-12T09:25:08.882Z,18.53
2022-12-12T09:27:37.878Z,20.23
2022-12-12T09:30:07.475Z,18.13
2022-12-12T09:32:36.178Z,19.53
2022-12-12T09:35:06.833Z,18.47
2022-12-12T09:37:35.494Z,18.93
2022-12-12T09:40:04.518Z,18.27
2022-12-12T09:42:36.394Z,20.07
2022-12-12T09:45:07.605Z,19.23
2022-12-12T09:47:40.563Z,20.03
2022-12-12T09:50:18.001Z,19.30
2022-12-12T09:52:47.336Z,19.60
2022-12-12T09:55:28.465Z,19.33
2022-12-12T09:58:00.505Z,18.43
2022-12-12T10:00:33.177Z,19.97
2022-12-12T10:03:19.214Z,20.47
2022-12-12T10:06:13.824Z,19.07
2022-12-12T10:09:00.470Z,19.17
2022-12-12T10:11:54.401Z,18.83
2022-12-12T10:14:30.182Z,17.67
2022-12-12T10:16:59.896Z,21.87
2022-12-12T10:19:31.431Z,19.83
2022-12-12T10:22:07.193Z,21.23
2022-12-12T10:24:41.209Z,20.80
2022-12-12T10:27:11.901Z,20.57
2022-12-12T10:29:45.490Z,22.17
2022-12-12T10:32:27.644Z,22.27
2022-12-12T10:35:12.972Z,22.23
2022-12-12T10:37:58.037Z,23.67
2022-12-12T10:40:42.722Z,22.83
2022-12-12T10:43:18.544Z,23.33
2022-12-12T10:45:56.728Z,19.93
2022-12-12T10:48:25.283Z,18.80
2022-12-12T10:50:57.089Z,21.17
2022-12-12T10:53:27.776Z,20.67
2022-12-12T10:55:59.942Z,21.30
2022-12-12T10:58:38.406Z,21.47
2022-12-12T11:01:13.842Z,21.03
2022-12-12T11:03:46.233Z,19.27
2022-12-12T11:06:19.467Z,21.33
2022-12-12T11:08:58.905Z,18.50
2022-12-12T11:11:29.068Z,18.93
2022-12-12T11:14:00.837Z,20.13
2022-12-12T11:16:31.304Z,18.97
2022-12-12T11:19:06.245Z,19.43
2022-12-12T11:21:37.739Z,20.20
2022-12-12T11:24:13.847Z,18.53
2022-12-12T11:26:46.669Z,18.20
2022-12-12T11:29:29.429Z,17.30
2022-12-12T11:32:00.340Z,16.17
2022-12-12T11:34:30.251Z,13.97
2022-12-12T11:37:01.129Z,15.17
2022-12-12T11:39:38.333Z,16.17
2022-12-12T11:42:20.209Z,15.27
2022-12-12T11:44:59.153Z,14.93
2022-12-12T11:47:30.406Z,15.37
2022-12-12T11:50:04.916Z,15.07
2022-12-12T11:52:37.645Z,12.80
2022-12-12T11:55:15.842Z,14.10
2022-12-12T11:58:03.682Z,13.63
2022-12-12T12:00:40.998Z,12.30
2022-12-12T12:03:28.459Z,13.47
2022-12-12T12:06:14.449Z,12.37
2022-12-12T12:09:06.984Z,13.40
2022-12-12T12:11:45.364Z,17.43
2022-12-12T12:14:28.908Z,14.30
2022-12-12T12:17:03.974Z,14.90
2022-12-12T12:19:40.092Z,13.30
2022-12-12T12:22:23.567Z,13.53
2022-12-12T12:25:16.275Z,13.40
2022-12-12T12:27:59.779Z,16.40
2022-12-12T12:30:35.200Z,15.47
2022-12-12T12:33:19.302Z,14.67
2022-12-12T12:35:59.837Z,13.70
2022-12-12T12:38:51.108Z,15.30
2022-12-12T12:41:31.246Z,16.00
2022-12-12T12:44:12.329Z,17.27
2022-12-12T12:46:47.058Z,18.20
2022-12-12T12:49:21.267Z,16.70
2022-12-12T12:51:55.174Z,17.67
2022-12-12T12:54:26.124Z,17.40
2022-12-12T12:56:59.896Z,18.13
2022-12-12T12:59:35.659Z,18.47
2022-12-12T13:02:12.322Z,18.07
2022-12-12T13:04:46.939Z,18.60
2022-12-12T13:07:29.063Z,16.20
2022-12-12T13:10:03.874Z,17.43
2022-12-12T13:12:38.495Z,17.33
2022-12-12T13:15:18.810Z,15.77
2022-12-12T13:17:55.035Z,17.03
2022-12-12T13:20:26.310Z,14.23
2022-12-12T13:23:07.798Z,17.63
2022-12-12T13:25:42.001Z,17.87
2022-12-12T13:28:16.015Z,15.73
2022-12-12T13:31:02.261Z,16.50
2022-12-12T13:33:41.618Z,15.83
2022-12-12T13:36:16.333Z,15.20
2022-12-12T13:38:49.374Z,15.27
2022-12-12T13:41:19.147Z,14.97
2022-12-12T13:43:49.250Z,15.20
2022-12-12T13:46:37.068Z,15.97
2022-12-12T13:49:31.957Z,16.30
2022-12-12T13:52:23.984Z,15.07
2022-12-12T13:54:55.535Z,15.07
2022-12-12T13:57:33.468Z,17.03
2022-12-12T14:00:30.118Z,16.83
2022-12-12T14:03:05.416Z,16.97
2022-12-12T14:05:37.102Z,16.43
2022-12-12T14:08:22.407Z,17.90
2022-12-12T14:10:58.685Z,16.57
2022-12-12T14:13:35.571Z,17.33
2022-12-12T14:16:08.141Z,15.60
2022-12-12T14:18:40.619Z,16.87
2022-12-12T14:21:11.791Z,17.17
2022-12-12T14:23:42.676Z,17.17
2022-12-12T14:26:48.879Z,16.83
2022-12-12T14:29:28.258Z,17.93
2022-12-12T14:32:16.195Z,15.87
2022-12-12T14:34:58.721Z,16.63
2022-12-12T14:37:40.751Z,16.53
2022-12-12T14:40:18.143Z,16.10
2022-12-12T14:43:15.433Z,18.50
2022-12-12T14:45:53.324Z,24.10
2022-12-12T14:48:24.667Z,26.80
2022-12-12T14:51:06.571Z,21.77
2022-12-12T14:53:48.733Z,18.63
2022-12-12T14:56:21.387Z,17.43
2022-12-12T14:58:59.021Z,18.07
2022-12-12T15:01:32.990Z,17.87
2022-12-12T15:04:05.130Z,20.50
2022-12-12T15:06:38.545Z,24.60
2022-12-12T15:09:17.660Z,22.17
2022-12-12T15:11:47.387Z,17.77
2022-12-12T15:14:20.218Z,17.47
2022-12-12T15:16:53.373Z,18.47
2022-12-12T15:19:26.876Z,19.60
2022-12-12T15:21:58.050Z,19.27
2022-12-12T15:24:29.673Z,20.37
2022-12-12T15:27:00.194Z,20.90
2022-12-12T15:29:30.950Z,21.57
2022-12-12T15:32:03.182Z,21.27
2022-12-12T15:34:40.686Z,21.47
2022-12-12T15:37:24.164Z,21.53
2022-12-12T15:40:26.322Z,21.60
2022-12-12T15:42:57.067Z,20.43
2022-12-12T15:45:33.346Z,20.50
2022-12-12T15:48:02.353Z,19.33
2022-12-12T15:50:37.458Z,19.07
2022-12-12T15:53:19.010Z,20.03
2022-12-12T15:55:56.730Z,18.83
2022-12-12T15:58:29.868Z,19.27
2022-12-12T16:01:20.136Z,18.40
2022-12-12T16:03:59.927Z,19.00
2022-12-12T16:06:30.895Z,19.03
2022-12-12T16:09:17.525Z,18.33
2022-12-12T16:11:47.198Z,44.27
2022-12-12T16:14:35.339Z,28.00
2022-12-12T16:17:11.612Z,23.10
2022-12-12T16:19:46.085Z,22.33
2022-12-12T16:22:21.711Z,33.37
2022-12-12T16:24:53.505Z,26.73
2022-12-12T16:27:22.054Z,22.67
2022-12-12T16:29:51.304Z,24.57
2022-12-12T16:32:21.369Z,27.67
2022-12-12T16:34:50.954Z,27.97
2022-12-12T16:37:19.978Z,26.67
2022-12-12T16:39:48.352Z,26.23
2022-12-12T16:42:21.959Z,22.73
2022-12-12T16:44:50.687Z,23.87
2022-12-12T16:47:22.086Z,24.67
2022-12-12T16:49:51.261Z,22.07
2022-12-12T16:52:21.761Z,27.67
2022-12-12T16:54:53.808Z,26.33
2022-12-12T16:57:42.802Z,27.60
2022-12-12T17:00:13.450Z,27.30
2022-12-12T17:02:42.138Z,26.60
2022-12-12T17:05:16.563Z,27.33
2022-12-12T17:07:45.142Z,29.20
2022-12-12T17:10:13.781Z,30.10
2022-12-12T17:12:43.775Z,26.83
2022-12-12T17:15:15.264Z,32.03
2022-12-12T17:17:44.017Z,34.33
2022-12-12T17:20:13.311Z,31.40
2022-12-12T17:22:42.067Z,32.07
2022-12-12T17:25:11.613Z,37.37
2022-12-12T17:27:40.854Z,33.67
2022-12-12T17:30:13.669Z,36.33
2022-12-12T17:32:43.318Z,40.97
2022-12-12T17:35:11.887Z,34.20
2022-12-12T17:37:40.937Z,27.53
2022-12-12T17:40:11.370Z,27.10
2022-12-12T17:42:40.322Z,28.20
2022-12-12T17:45:12.976Z,26.17
2022-12-12T17:47:41.678Z,25.43
2022-12-12T17:50:12.562Z,26.20
2022-12-12T17:52:41.361Z,25.60
2022-12-12T17:55:53.473Z,22.60
2022-12-12T17:57:59.227Z,23.83
2022-12-12T18:00:29.390Z,24.07
2022-12-12T18:02:58.047Z,22.97
2022-12-12T18:05:26.580Z,18.03
2022-12-12T18:07:55.677Z,21.43
2022-12-12T18:10:24.384Z,18.73
2022-12-12T18:12:53.416Z,18.03
2022-12-12T18:15:21.936Z,20.43
2022-12-12T18:17:52.523Z,22.60
2022-12-12T18:20:21.295Z,29.33
2022-12-12T18:22:50.363Z,32.53
2022-12-12T18:25:19.616Z,33.33
2022-12-12T18:27:48.787Z,33.30
2022-12-12T18:30:17.531Z,28.70
2022-12-12T18:32:46.910Z,27.63
2022-12-12T18:35:16.821Z,25.80
2022-12-12T18:37:46.172Z,22.80
2022-12-12T18:40:14.766Z,20.87
2022-12-12T18:42:43.400Z,20.27
2022-12-12T18:45:12.286Z,19.23
2022-12-12T18:47:40.821Z,20.97
2022-12-12T18:50:10.580Z,20.50
2022-12-12T18:52:40.299Z,20.60
2022-12-12T18:55:09.690Z,19.07
2022-12-12T18:57:38.088Z,21.70
2022-12-12T19:00:08.494Z,22.73
2022-12-12T19:02:40.406Z,20.80
2022-12-12T19:05:13.400Z,21.23
2022-12-12T19:07:44.109Z,21.27
2022-12-12T19:10:13.427Z,19.27
2022-12-12T19:12:41.970Z,19.50
2022-12-12T19:15:18.914Z,20.87
2022-12-12T19:17:48.099Z,21.67
2022-12-12T19:20:17.067Z,22.50
2022-12-12T19:22:47.190Z,19.47
2022-12-12T19:25:15.965Z,21.73
2022-12-12T19:27:45.120Z,19.67
2022-12-12T19:30:15.679Z,19.70
2022-12-12T19:32:48.662Z,20.27
2022-12-12T19:35:17.559Z,24.33
2022-12-12T19:37:47.388Z,27.13
2022-12-12T19:40:16.286Z,30.20
2022-12-12T19:42:45.387Z,27.30
2022-12-12T19:45:13.843Z,28.10
2022-12-12T19:47:42.352Z,39.10
2022-12-12T19:50:11.356Z,41.93
2022-12-12T19:52:40.233Z,34.30
2022-12-12T19:55:10.505Z,33.17
2022-12-12T19:57:40.177Z,33.37
2022-12-12T20:00:11.203Z,34.30
2022-12-12T20:02:40.233Z,31.20
2022-12-12T20:05:09.442Z,39.43
2022-12-12T20:07:38.056Z,30.47
2022-12-12T20:10:07.894Z,30.90
2022-12-12T20:12:41.238Z,33.57
2022-12-12T20:15:15.237Z,31.33
2022-12-12T20:17:44.248Z,34.20
2022-12-12T20:20:13.779Z,31.90
2022-12-12T20:22:42.401Z,31.47
2022-12-12T20:25:11.657Z,30.23
2022-12-12T20:27:41.928Z,32.47
2022-12-12T20:30:12.359Z,27.07
2022-12-12T20:32:41.339Z,24.80
2022-12-12T20:35:10.429Z,23.53
2022-12-12T20:37:40.038Z,22.33
2022-12-12T20:40:09.575Z,23.10
2022-12-12T20:42:38.410Z,23.50
2022-12-12T20:45:10.450Z,25.40
2022-12-12T20:47:38.933Z,23.47
2022-12-12T20:50:08.562Z,21.73
2022-12-12T20:52:36.978Z,22.93
2022-12-12T20:55:06.694Z,21.63
2022-12-12T20:57:35.214Z,25.00
2022-12-12T21:00:04.847Z,34.63
2022-12-12T21:02:34.723Z,34.70
2022-12-12T21:05:06.017Z,41.70
2022-12-12T21:07:34.418Z,42.30
2022-12-12T21:10:02.794Z,53.53
2022-12-12T21:12:31.588Z,39.77
2022-12-12T21:15:02.986Z,29.20
2022-12-12T21:17:32.055Z,26.97
2022-12-12T21:20:06.484Z,27.33
2022-12-12T21:22:35.754Z,23.97
2022-12-12T21:25:04.206Z,25.87
2022-12-12T21:27:33.444Z,26.17
2022-12-12T21:30:02.459Z,30.30
2022-12-12T21:32:30.902Z,30.80
2022-12-12T21:34:59.311Z,27.67
2022-12-12T21:37:29.801Z,28.67
2022-12-12T21:39:58.238Z,26.47
2022-12-12T21:42:26.606Z,23.00
2022-12-12T21:44:55.416Z,23.70
2022-12-12T21:47:23.870Z,22.47
2022-12-12T21:49:52.477Z,21.63
2022-12-12T21:52:22.094Z,21.13
2022-12-12T21:54:52.349Z,23.57
2022-12-12T21:57:24.625Z,23.17
2022-12-12T21:59:53.475Z,23.63
2022-12-12T22:02:21.946Z,23.90
2022-12-12T22:04:50.419Z,24.70
2022-12-12T22:07:21.206Z,23.60
2022-12-12T22:09:57.199Z,25.53
2022-12-12T22:12:39.862Z,24.97
2022-12-12T22:15:09.390Z,25.63
2022-12-12T22:17:38.079Z,25.70
2022-12-12T22:20:07.115Z,25.87
2022-12-12T22:22:35.611Z,24.57
2022-12-12T22:25:06.587Z,25.27
2022-12-12T22:27:35.284Z,25.70
2022-12-12T22:30:03.697Z,24.07
2022-12-12T22:32:32.968Z,27.27
2022-12-12T22:35:01.523Z,30.27
2022-12-12T22:37:31.307Z,26.37
2022-12-12T22:39:59.711Z,26.87
2022-12-12T22:42:30.910Z,26.00
2022-12-12T22:44:59.285Z,24.87
2022-12-12T22:47:28.316Z,25.30
2022-12-12T22:49:57.327Z,23.60
2022-12-12T22:52:26.335Z,25.80
2022-12-12T22:54:55.251Z,25.53
2022-12-12T22:57:23.623Z,28.53
2022-12-12T22:59:54.475Z,28.70
2022-12-12T23:02:25.118Z,27.17
2022-12-12T23:04:54.713Z,28.17
2022-12-12T23:07:23.389Z,28.83
2022-12-12T23:09:56.814Z,28.50
2022-12-12T23:12:25.421Z,26.77
2022-12-12T23:14:55.587Z,23.77
2022-12-12T23:17:24.677Z,23.87
2022-12-12T23:19:53.515Z,27.37
2022-12-12T23:22:23.190Z,33.63
2022-12-12T23:24:51.579Z,35.97
2022-12-12T23:27:20.274Z,34.40
2022-12-12T23:29:48.632Z,35.83
2022-12-12T23:32:18.873Z,34.67
2022-12-12T23:34:50.193Z,35.20
2022-12-12T23:37:18.530Z,34.83
2022-12-12T23:39:51.154Z,33.47
2022-12-12T23:42:19.504Z,35.87
2022-12-12T23:44:50.920Z,30.43
2022-12-12T23:47:20.768Z,29.03
2022-12-12T23:49:49.634Z,29.67
2022-12-12T23:52:18.036Z,37.87
2022-12-12T23:54:47.517Z,30.87
2022-12-12T23:57:16.386Z,30.57
2022-12-12T23:59:45.198Z,33.00
